createdAt,value
2018-05-23T00:00:35.447Z,16.60
2018-05-23T00:01:35.677Z,16.61
2018-05-23T00:02:35.907Z,16.64
2018-05-23T00:03:36.141Z,16.66
2018-05-23T00:04:36.377Z,16.58
2018-05-23T00:05:36.593Z,16.60
2018-05-23T00:06:36.827Z,16.60
2018-05-23T00:07:37.052Z,16.57
2018-05-23T00:08:37.281Z,16.60
2018-05-23T00:09:37.513Z,16.49
2018-05-23T00:10:37.741Z,16.53
2018-05-23T00:11:37.963Z,16.47
2018-05-23T00:12:38.204Z,16.51
2018-05-23T00:13:38.438Z,16.53
2018-05-23T00:14:38.669Z,16.49
2018-05-23T00:15:38.900Z,16.36
2018-05-23T00:16:39.118Z,16.35
2018-05-23T00:17:39.347Z,16.36
2018-05-23T00:18:39.576Z,16.43
2018-05-23T00:19:39.837Z,16.35
2018-05-23T00:20:40.024Z,16.38
2018-05-23T00:21:40.246Z,16.33
2018-05-23T00:22:40.476Z,16.32
2018-05-23T00:23:40.709Z,16.36
2018-05-23T00:24:40.940Z,16.38
2018-05-23T00:25:41.179Z,16.31
2018-05-23T00:26:41.407Z,16.35
2018-05-23T00:27:41.629Z,16.29
2018-05-23T00:28:41.855Z,16.33
2018-05-23T00:29:42.086Z,16.28
2018-05-23T00:30:42.317Z,16.39
2018-05-23T00:31:42.547Z,16.32
2018-05-23T00:32:42.772Z,16.38
2018-05-23T00:33:43.002Z,16.32
2018-05-23T00:34:43.229Z,16.35
2018-05-23T00:35:43.468Z,16.29
2018-05-23T00:36:43.700Z,16.38
2018-05-23T00:37:43.925Z,16.35
2018-05-23T00:38:44.153Z,16.38
2018-05-23T00:39:44.385Z,16.38
2018-05-23T00:40:44.618Z,16.32
2018-05-23T00:41:44.847Z,16.31
2018-05-23T00:42:45.076Z,16.35
2018-05-23T00:43:45.305Z,16.41
2018-05-23T00:44:45.534Z,16.42
2018-05-23T00:45:45.769Z,16.39
2018-05-23T00:46:45.994Z,16.41
2018-05-23T00:47:46.222Z,16.33
2018-05-23T00:48:46.455Z,16.24
2018-05-23T00:49:46.686Z,16.39
2018-05-23T00:50:46.919Z,16.39
2018-05-23T00:51:47.142Z,16.39
2018-05-23T00:52:47.373Z,16.41
2018-05-23T00:53:47.601Z,16.39
2018-05-23T00:54:47.825Z,16.42
2018-05-23T00:55:48.057Z,16.43
2018-05-23T00:56:48.286Z,16.43
2018-05-23T00:57:48.527Z,16.42
2018-05-23T00:58:48.768Z,16.42
2018-05-23T00:59:48.973Z,16.43
2018-05-23T01:00:49.189Z,16.54
2018-05-23T01:01:49.423Z,16.49
2018-05-23T01:02:49.657Z,16.61
2018-05-23T01:03:49.890Z,16.57
2018-05-23T01:04:50.113Z,16.61
2018-05-23T01:05:50.347Z,16.65
2018-05-23T01:06:50.573Z,16.69
2018-05-23T01:07:50.797Z,16.65
2018-05-23T01:08:51.041Z,16.60
2018-05-23T01:09:51.261Z,16.51
2018-05-23T01:10:51.490Z,16.60
2018-05-23T01:11:51.724Z,16.64
2018-05-23T01:12:51.942Z,16.68
2018-05-23T01:13:52.222Z,16.65
2018-05-23T01:14:52.404Z,16.65
2018-05-23T01:15:52.632Z,16.58
2018-05-23T01:16:52.871Z,16.61
2018-05-23T01:17:53.092Z,16.49
2018-05-23T01:18:53.325Z,16.66
2018-05-23T01:19:53.554Z,16.69
2018-05-23T01:20:53.781Z,16.56
2018-05-23T01:21:54.093Z,16.68
2018-05-23T01:22:54.239Z,16.64
2018-05-23T01:23:54.468Z,16.58
2018-05-23T01:24:54.692Z,16.57
2018-05-23T01:25:54.923Z,16.51
2018-05-23T01:26:55.154Z,16.56
2018-05-23T01:27:55.382Z,16.60
2018-05-23T01:28:55.617Z,16.53
2018-05-23T01:29:55.849Z,16.60
2018-05-23T01:30:56.073Z,16.54
2018-05-23T01:31:56.307Z,16.71
2018-05-23T01:32:56.533Z,16.60
2018-05-23T01:33:56.769Z,16.69
2018-05-23T01:34:56.994Z,16.68
2018-05-23T01:35:57.222Z,16.65
2018-05-23T01:36:57.462Z,16.68
2018-05-23T01:37:57.689Z,16.66
2018-05-23T01:38:57.919Z,16.79
2018-05-23T01:39:58.139Z,16.79
2018-05-23T01:40:58.367Z,16.83
2018-05-23T01:41:58.598Z,16.89
2018-05-23T01:42:58.814Z,16.75
2018-05-23T01:43:59.054Z,16.78
2018-05-23T01:44:59.275Z,16.84
2018-05-23T01:45:59.504Z,16.81
2018-05-23T01:46:59.728Z,16.79
2018-05-23T01:47:59.960Z,16.79
2018-05-23T01:49:00.188Z,16.75
2018-05-23T01:50:00.416Z,16.72
2018-05-23T01:51:00.649Z,16.71
2018-05-23T01:52:00.879Z,16.68
2018-05-23T01:53:01.115Z,16.71
2018-05-23T01:54:01.344Z,16.58
2018-05-23T01:55:01.574Z,16.61
2018-05-23T01:56:01.811Z,16.60
2018-05-23T01:57:02.041Z,16.61
2018-05-23T01:58:02.262Z,16.50
2018-05-23T01:59:02.495Z,16.53
2018-05-23T02:00:02.723Z,16.49
2018-05-23T02:01:02.957Z,16.47
2018-05-23T02:02:03.183Z,16.50
2018-05-23T02:03:03.411Z,16.46
2018-05-23T02:04:03.647Z,16.38
2018-05-23T02:05:03.877Z,16.35
2018-05-23T02:06:04.108Z,16.42
2018-05-23T02:07:04.334Z,16.43
2018-05-23T02:08:04.568Z,16.41
2018-05-23T02:09:04.798Z,16.38
2018-05-23T02:10:05.028Z,16.36
2018-05-23T02:11:05.259Z,16.35
2018-05-23T02:12:05.494Z,16.39
2018-05-23T02:13:05.721Z,16.56
2018-05-23T02:14:05.950Z,16.51
2018-05-23T02:15:06.182Z,16.53
2018-05-23T02:16:06.407Z,16.58
2018-05-23T02:17:06.641Z,16.57
2018-05-23T02:18:06.869Z,16.60
2018-05-23T02:19:07.096Z,16.56
2018-05-23T02:20:07.328Z,16.56
2018-05-23T02:21:07.556Z,16.47
2018-05-23T02:22:07.786Z,16.64
2018-05-23T02:23:08.015Z,16.57
2018-05-23T02:24:08.251Z,16.60
2018-05-23T02:25:08.481Z,16.58
2018-05-23T02:26:08.711Z,16.53
2018-05-23T02:27:08.939Z,16.56
2018-05-23T02:28:09.178Z,16.50
2018-05-23T02:29:09.399Z,16.58
2018-05-23T02:30:09.631Z,16.56
2018-05-23T02:31:09.861Z,16.58
2018-05-23T02:32:10.086Z,16.60
2018-05-23T02:33:10.315Z,16.61
2018-05-23T02:34:10.545Z,16.49
2018-05-23T02:35:10.782Z,16.51
2018-05-23T02:36:11.000Z,16.47
2018-05-23T02:37:11.225Z,16.49
2018-05-23T02:38:11.458Z,16.57
2018-05-23T02:39:11.689Z,16.53
2018-05-23T02:40:11.915Z,16.60
2018-05-23T02:41:12.141Z,16.61
2018-05-23T02:42:12.373Z,16.58
2018-05-23T02:43:12.606Z,16.61
2018-05-23T02:44:12.834Z,16.64
2018-05-23T02:45:13.067Z,16.72
2018-05-23T02:46:13.296Z,16.74
2018-05-23T02:47:13.558Z,16.68
2018-05-23T02:48:13.757Z,16.72
2018-05-23T02:49:13.979Z,16.72
2018-05-23T02:50:14.209Z,16.65
2018-05-23T02:51:14.446Z,16.71
2018-05-23T02:52:14.681Z,16.66
2018-05-23T02:53:14.906Z,16.61
2018-05-23T02:54:15.142Z,16.71
2018-05-23T02:55:15.369Z,16.64
2018-05-23T02:56:15.608Z,16.57
2018-05-23T02:57:15.843Z,16.61
2018-05-23T02:58:16.068Z,16.71
2018-05-23T02:59:16.301Z,16.68
2018-05-23T03:00:16.541Z,16.65
2018-05-23T03:01:16.760Z,16.58
2018-05-23T03:02:16.989Z,16.66
2018-05-23T03:03:17.219Z,16.50
2018-05-23T03:04:17.450Z,16.71
2018-05-23T03:05:17.680Z,16.69
2018-05-23T03:06:17.911Z,16.76
2018-05-23T03:07:18.142Z,16.61
2018-05-23T03:08:18.379Z,16.64
2018-05-23T03:09:18.603Z,16.66
2018-05-23T03:10:18.834Z,16.69
2018-05-23T03:11:19.065Z,16.75
2018-05-23T03:12:19.295Z,16.61
2018-05-23T03:13:19.526Z,16.75
2018-05-23T03:14:19.757Z,16.78
2018-05-23T03:15:19.974Z,16.78
2018-05-23T03:16:20.197Z,16.84
2018-05-23T03:17:20.434Z,16.89
2018-05-23T03:18:20.664Z,16.84
2018-05-23T03:19:20.895Z,16.83
2018-05-23T03:20:21.142Z,16.78
2018-05-23T03:21:21.342Z,16.84
2018-05-23T03:22:21.574Z,16.74
2018-05-23T03:23:21.803Z,16.72
2018-05-23T03:24:22.035Z,16.78
2018-05-23T03:25:22.267Z,16.78
2018-05-23T03:26:22.499Z,16.78
2018-05-23T03:27:22.731Z,16.75
2018-05-23T03:28:22.962Z,16.79
2018-05-23T03:29:23.196Z,16.74
2018-05-23T03:30:23.432Z,16.75
2018-05-23T03:31:23.647Z,16.81
2018-05-23T03:32:23.873Z,16.79
2018-05-23T03:33:24.115Z,16.78
2018-05-23T03:34:24.345Z,16.87
2018-05-23T03:35:24.572Z,16.84
2018-05-23T03:36:24.803Z,16.84
2018-05-23T03:37:25.031Z,16.87
2018-05-23T03:38:25.263Z,16.79
2018-05-23T03:39:25.493Z,16.86
2018-05-23T03:40:25.724Z,16.87
2018-05-23T03:41:25.956Z,16.84
2018-05-23T03:42:26.184Z,16.91
2018-05-23T03:43:26.415Z,16.87
2018-05-23T03:44:26.647Z,16.90
2018-05-23T03:45:26.882Z,16.89
2018-05-23T03:46:27.124Z,16.87
2018-05-23T03:47:27.344Z,16.83
2018-05-23T03:48:27.572Z,16.79
2018-05-23T03:49:27.803Z,16.81
2018-05-23T03:50:28.041Z,16.76
2018-05-23T03:51:28.264Z,16.86
2018-05-23T03:52:28.496Z,16.78
2018-05-23T03:53:28.730Z,16.72
2018-05-23T03:54:28.961Z,16.79
2018-05-23T03:55:29.198Z,16.74
2018-05-23T03:56:29.436Z,16.83
2018-05-23T03:57:29.656Z,16.78
2018-05-23T03:58:29.877Z,16.81
2018-05-23T03:59:30.111Z,16.91
2018-05-23T04:00:30.338Z,16.81
2018-05-23T04:01:30.566Z,16.83
2018-05-23T04:02:30.814Z,16.76
2018-05-23T04:03:31.038Z,16.81
2018-05-23T04:04:31.265Z,16.74
2018-05-23T04:05:31.497Z,16.60
2018-05-23T04:06:31.733Z,16.66
2018-05-23T04:07:31.961Z,16.71
2018-05-23T04:08:32.179Z,16.75
2018-05-23T04:09:32.407Z,16.76
2018-05-23T04:10:32.638Z,16.84
2018-05-23T04:11:32.870Z,16.99
2018-05-23T04:12:33.101Z,16.91
2018-05-23T04:13:33.338Z,16.86
2018-05-23T04:14:33.556Z,16.96
2018-05-23T04:15:33.789Z,17.01
2018-05-23T04:16:34.024Z,17.04
2018-05-23T04:17:34.251Z,17.06
2018-05-23T04:18:34.494Z,17.16
2018-05-23T04:19:34.713Z,17.15
2018-05-23T04:20:34.933Z,17.06
2018-05-23T04:21:35.166Z,17.14
2018-05-23T04:22:35.398Z,17.24
2018-05-23T04:23:35.629Z,17.04
2018-05-23T04:24:35.860Z,16.87
2018-05-23T04:25:36.102Z,16.94
2018-05-23T04:26:36.306Z,16.89
2018-05-23T04:27:36.538Z,16.86
2018-05-23T04:28:36.765Z,16.89
2018-05-23T04:29:36.996Z,16.90
2018-05-23T04:30:37.236Z,16.90
2018-05-23T04:31:37.469Z,16.99
2018-05-23T04:32:37.678Z,16.97
2018-05-23T04:33:37.935Z,17.06
2018-05-23T04:34:38.132Z,17.12
2018-05-23T04:35:38.373Z,17.16
2018-05-23T04:36:38.620Z,17.24
2018-05-23T04:37:38.833Z,17.36
2018-05-23T04:38:39.064Z,17.29
2018-05-23T04:39:39.299Z,17.39
2018-05-23T04:40:39.534Z,17.26
2018-05-23T04:41:39.765Z,17.23
2018-05-23T04:42:40.000Z,17.39
2018-05-23T04:43:40.238Z,17.41
2018-05-23T04:44:40.482Z,17.46
2018-05-23T04:45:40.693Z,17.49
2018-05-23T04:46:40.923Z,17.63
2018-05-23T04:47:41.147Z,17.65
2018-05-23T04:48:41.394Z,17.67
2018-05-23T04:49:41.621Z,17.74
2018-05-23T04:50:41.851Z,17.79
2018-05-23T04:51:42.097Z,17.68
2018-05-23T04:52:42.312Z,17.70
2018-05-23T04:53:42.544Z,17.79
2018-05-23T04:54:42.772Z,17.76
2018-05-23T04:55:42.990Z,17.82
2018-05-23T04:56:43.226Z,17.94
2018-05-23T04:57:43.456Z,17.87
2018-05-23T04:58:43.690Z,17.92
2018-05-23T04:59:43.920Z,17.95
2018-05-23T05:00:44.154Z,18.03
2018-05-23T05:01:44.381Z,18.05
2018-05-23T05:02:44.616Z,18.01
2018-05-23T05:03:44.850Z,18.16
2018-05-23T05:04:45.075Z,18.19
2018-05-23T05:05:45.305Z,18.13
2018-05-23T05:06:45.538Z,18.20
2018-05-23T05:07:45.769Z,18.28
2018-05-23T05:08:46.003Z,18.23
2018-05-23T05:09:46.231Z,18.34
2018-05-23T05:10:46.459Z,18.37
2018-05-23T05:11:46.689Z,18.52
2018-05-23T05:12:46.928Z,18.45
2018-05-23T05:13:47.236Z,18.47
2018-05-23T05:14:47.387Z,18.52
2018-05-23T05:15:47.619Z,18.56
2018-05-23T05:16:47.850Z,18.55
2018-05-23T05:17:48.095Z,18.60
2018-05-23T05:18:48.313Z,18.59
2018-05-23T05:19:48.547Z,18.49
2018-05-23T05:20:48.782Z,18.44
2018-05-23T05:21:49.013Z,18.35
2018-05-23T05:22:49.242Z,18.35
2018-05-23T05:23:49.471Z,18.38
2018-05-23T05:24:49.778Z,18.38
2018-05-23T05:25:49.936Z,18.35
2018-05-23T05:26:50.167Z,18.20
2018-05-23T05:27:50.404Z,18.18
2018-05-23T05:28:50.630Z,18.16
2018-05-23T05:29:50.864Z,18.11
2018-05-23T05:30:51.096Z,18.01
2018-05-23T05:31:51.417Z,17.98
2018-05-23T05:32:51.562Z,18.04
2018-05-23T05:33:51.799Z,18.10
2018-05-23T05:34:52.028Z,18.07
2018-05-23T05:35:52.265Z,18.16
2018-05-23T05:36:52.492Z,18.19
2018-05-23T05:37:52.726Z,18.07
2018-05-23T05:38:52.957Z,18.15
2018-05-23T05:39:53.178Z,18.18
2018-05-23T05:40:53.407Z,18.16
2018-05-23T05:41:53.642Z,18.08
2018-05-23T05:42:53.893Z,18.05
2018-05-23T05:43:54.104Z,18.13
2018-05-23T05:44:54.343Z,18.16
2018-05-23T05:45:54.562Z,18.22
2018-05-23T05:46:54.864Z,18.26
2018-05-23T05:47:55.025Z,18.40
2018-05-23T05:48:55.247Z,18.44
2018-05-23T05:49:55.500Z,18.55
2018-05-23T05:50:55.741Z,18.47
2018-05-23T05:51:55.954Z,18.50
2018-05-23T05:52:56.193Z,18.47
2018-05-23T05:53:56.413Z,18.37
2018-05-23T05:54:56.644Z,18.33
2018-05-23T05:55:56.871Z,18.23
2018-05-23T05:56:57.106Z,18.19
2018-05-23T05:57:57.336Z,18.11
2018-05-23T05:58:57.569Z,18.18
2018-05-23T05:59:57.802Z,18.16
2018-05-23T06:00:58.032Z,18.08
2018-05-23T06:01:58.306Z,18.01
2018-05-23T06:02:58.504Z,18.19
2018-05-23T06:03:58.738Z,18.10
2018-05-23T06:04:58.967Z,17.98
2018-05-23T06:05:59.206Z,17.98
2018-05-23T06:06:59.436Z,18.08
2018-05-23T06:07:59.667Z,17.97
2018-05-23T06:08:59.897Z,18.08
2018-05-23T06:10:00.172Z,18.07
2018-05-23T06:11:00.362Z,18.22
2018-05-23T06:12:00.593Z,18.18
2018-05-23T06:13:00.828Z,18.18
2018-05-23T06:14:01.053Z,18.20
2018-05-23T06:15:01.285Z,18.33
2018-05-23T06:16:01.516Z,18.34
2018-05-23T06:17:01.744Z,18.34
2018-05-23T06:18:01.969Z,18.52
2018-05-23T06:19:02.200Z,18.49
2018-05-23T06:20:02.430Z,18.60
2018-05-23T06:21:02.651Z,18.56
2018-05-23T06:22:02.889Z,18.73
2018-05-23T06:23:03.119Z,18.80
2018-05-23T06:24:03.347Z,18.89
2018-05-23T06:25:03.586Z,19.00
2018-05-23T06:26:03.813Z,19.00
2018-05-23T06:27:04.041Z,19.09
2018-05-23T06:28:04.270Z,19.14
2018-05-23T06:29:04.504Z,19.19
2018-05-23T06:30:04.735Z,19.21
2018-05-23T06:31:04.974Z,19.22
2018-05-23T06:32:05.205Z,19.29
2018-05-23T06:33:05.437Z,19.26
2018-05-23T06:34:05.670Z,19.52
2018-05-23T06:35:05.897Z,19.70
2018-05-23T06:36:06.133Z,19.82
2018-05-23T06:37:06.367Z,19.91
2018-05-23T06:38:06.603Z,20.06
2018-05-23T06:39:06.832Z,20.04
2018-05-23T06:40:07.063Z,20.03
2018-05-23T06:41:07.296Z,20.06
2018-05-23T06:42:07.528Z,20.02
2018-05-23T06:43:07.761Z,20.04
2018-05-23T06:44:08.003Z,19.92
2018-05-23T06:45:08.225Z,20.03
2018-05-23T06:46:08.456Z,19.96
2018-05-23T06:47:08.690Z,20.06
2018-05-23T06:48:08.922Z,19.88
2018-05-23T06:49:09.155Z,20.09
2018-05-23T06:50:09.430Z,20.21
2018-05-23T06:51:09.692Z,20.09
2018-05-23T06:52:09.861Z,20.16
2018-05-23T06:53:10.105Z,19.94
2018-05-23T06:54:10.322Z,20.04
2018-05-23T06:55:10.556Z,20.04
2018-05-23T06:56:10.791Z,20.09
2018-05-23T06:57:11.025Z,20.04
2018-05-23T06:58:11.258Z,20.19
2018-05-23T06:59:11.487Z,20.04
2018-05-23T07:00:11.722Z,19.92
2018-05-23T07:01:11.954Z,19.91
2018-05-23T07:02:12.187Z,19.88
2018-05-23T07:03:12.432Z,19.82
2018-05-23T07:04:12.653Z,20.02
2018-05-23T07:05:12.887Z,20.07
2018-05-23T07:06:13.118Z,20.03
2018-05-23T07:07:13.352Z,20.16
2018-05-23T07:08:13.587Z,20.06
2018-05-23T07:09:13.821Z,20.25
2018-05-23T07:10:14.058Z,20.34
2018-05-23T07:11:14.340Z,20.41
2018-05-23T07:12:14.526Z,20.28
2018-05-23T07:13:14.763Z,20.10
2018-05-23T07:14:14.995Z,20.00
2018-05-23T07:15:15.231Z,20.14
2018-05-23T07:16:15.462Z,20.31
2018-05-23T07:17:15.696Z,20.24
2018-05-23T07:18:15.929Z,20.36
2018-05-23T07:19:16.169Z,20.31
2018-05-23T07:20:16.402Z,20.16
2018-05-23T07:21:16.632Z,20.21
2018-05-23T07:22:16.868Z,20.26
2018-05-23T07:23:17.112Z,20.21
2018-05-23T07:24:17.342Z,20.26
2018-05-23T07:25:17.583Z,20.26
2018-05-23T07:26:17.811Z,20.19
2018-05-23T07:27:18.043Z,20.32
2018-05-23T07:28:18.278Z,20.43
2018-05-23T07:29:18.510Z,20.59
2018-05-23T07:30:18.743Z,20.66
2018-05-23T07:31:18.970Z,20.70
2018-05-23T07:32:19.203Z,20.84
2018-05-23T07:33:19.441Z,20.95
2018-05-23T07:34:19.667Z,20.96
2018-05-23T07:35:19.906Z,21.11
2018-05-23T07:36:20.148Z,21.15
2018-05-23T07:37:20.379Z,21.20
2018-05-23T07:38:20.702Z,21.50
2018-05-23T07:39:20.851Z,21.36
2018-05-23T07:40:21.083Z,21.39
2018-05-23T07:41:21.315Z,21.54
2018-05-23T07:42:21.549Z,21.66
2018-05-23T07:43:21.792Z,21.57
2018-05-23T07:44:22.016Z,21.45
2018-05-23T07:45:22.252Z,21.54
2018-05-23T07:46:22.481Z,21.50
2018-05-23T07:47:22.717Z,21.58
2018-05-23T07:48:22.949Z,21.51
2018-05-23T07:49:23.181Z,21.51
2018-05-23T07:50:23.418Z,21.51
2018-05-23T07:51:23.657Z,21.42
2018-05-23T07:52:23.915Z,21.39
2018-05-23T07:53:24.128Z,21.39
2018-05-23T07:54:24.360Z,21.43
2018-05-23T07:55:24.591Z,21.55
2018-05-23T07:56:24.830Z,21.45
2018-05-23T07:57:25.068Z,21.46
2018-05-23T07:58:25.305Z,21.46
2018-05-23T07:59:25.541Z,21.42
2018-05-23T08:00:25.768Z,21.46
2018-05-23T08:01:26.003Z,21.48
2018-05-23T08:02:26.238Z,21.43
2018-05-23T08:03:26.478Z,21.46
2018-05-23T08:04:26.712Z,21.43
2018-05-23T08:05:26.947Z,21.43
2018-05-23T08:06:27.175Z,21.54
2018-05-23T08:07:27.414Z,21.60
2018-05-23T08:08:27.646Z,21.66
2018-05-23T08:09:27.881Z,21.62
2018-05-23T08:10:28.117Z,21.69
2018-05-23T08:11:28.351Z,21.77
2018-05-23T08:12:28.587Z,21.75
2018-05-23T08:13:28.825Z,21.82
2018-05-23T08:14:29.058Z,21.89
2018-05-23T08:15:29.291Z,21.98
2018-05-23T08:16:29.529Z,22.08
2018-05-23T08:17:29.764Z,22.07
2018-05-23T08:18:29.997Z,22.04
2018-05-23T08:19:30.232Z,21.92
2018-05-23T08:20:30.463Z,21.83
2018-05-23T08:21:30.699Z,21.96
2018-05-23T08:22:30.934Z,21.93
2018-05-23T08:23:31.168Z,22.17
2018-05-23T08:24:31.427Z,21.92
2018-05-23T08:25:31.641Z,21.92
2018-05-23T08:26:31.875Z,21.96
2018-05-23T08:27:32.110Z,22.02
2018-05-23T08:28:32.348Z,22.18
2018-05-23T08:29:32.582Z,21.98
2018-05-23T08:30:32.817Z,22.17
2018-05-23T08:31:33.052Z,22.23
2018-05-23T08:32:33.285Z,22.30
2018-05-23T08:33:33.520Z,22.28
2018-05-23T08:34:33.755Z,22.30
2018-05-23T08:35:33.990Z,22.39
2018-05-23T08:36:34.222Z,22.57
2018-05-23T08:37:34.446Z,22.68
2018-05-23T08:38:34.684Z,22.55
2018-05-23T08:39:34.925Z,22.68
2018-05-23T08:40:35.164Z,22.69
2018-05-23T08:41:35.396Z,22.87
2018-05-23T08:42:35.635Z,22.98
2018-05-23T08:43:35.880Z,23.06
2018-05-23T08:44:36.106Z,23.24
2018-05-23T08:45:36.336Z,23.13
2018-05-23T08:46:36.570Z,23.02
2018-05-23T08:47:36.804Z,23.13
2018-05-23T08:48:37.040Z,23.05
2018-05-23T08:49:37.276Z,23.05
2018-05-23T08:50:37.493Z,23.23
2018-05-23T08:51:37.751Z,23.44
2018-05-23T08:52:37.986Z,23.59
2018-05-23T08:53:38.217Z,23.91
2018-05-23T08:54:38.461Z,23.69
2018-05-23T08:55:38.699Z,23.74
2018-05-23T08:56:38.924Z,23.56
2018-05-23T08:57:39.168Z,23.65
2018-05-23T08:58:39.397Z,23.80
2018-05-23T08:59:39.631Z,24.02
2018-05-23T09:00:39.863Z,23.87
2018-05-23T09:01:40.101Z,23.55
2018-05-23T09:02:40.337Z,23.50
2018-05-23T09:03:40.576Z,23.43
2018-05-23T09:04:40.864Z,23.50
2018-05-23T09:05:41.045Z,23.62
2018-05-23T09:06:41.281Z,23.59
2018-05-23T09:07:41.517Z,23.41
2018-05-23T09:08:41.760Z,23.36
2018-05-23T09:09:41.989Z,23.46
2018-05-23T09:10:42.231Z,23.50
2018-05-23T09:11:42.460Z,23.13
2018-05-23T09:12:42.702Z,23.09
2018-05-23T09:13:42.934Z,23.10
2018-05-23T09:14:43.172Z,23.10
2018-05-23T09:15:43.398Z,23.05
2018-05-23T09:16:43.633Z,23.39
2018-05-23T09:17:43.893Z,23.43
2018-05-23T09:18:44.114Z,23.54
2018-05-23T09:19:44.340Z,23.76
2018-05-23T09:20:44.576Z,23.91
2018-05-23T09:21:44.809Z,23.84
2018-05-23T09:22:45.057Z,23.80
2018-05-23T09:23:45.293Z,23.81
2018-05-23T09:24:45.515Z,24.01
2018-05-23T09:25:45.754Z,23.84
2018-05-23T09:26:45.982Z,24.05
2018-05-23T09:27:46.217Z,24.33
2018-05-23T09:28:46.455Z,23.96
2018-05-23T09:29:46.692Z,23.98
2018-05-23T09:30:46.928Z,24.10
2018-05-23T09:31:47.166Z,24.35
2018-05-23T09:32:47.399Z,24.33
2018-05-23T09:33:47.632Z,24.54
2018-05-23T09:34:47.870Z,24.39
2018-05-23T09:35:48.115Z,24.32
2018-05-23T09:36:48.333Z,24.35
2018-05-23T09:37:48.576Z,24.24
2018-05-23T09:38:48.817Z,24.43
2018-05-23T09:39:49.066Z,24.29
2018-05-23T09:40:49.287Z,24.35
2018-05-23T09:41:49.523Z,24.23
2018-05-23T09:42:49.759Z,24.21
2018-05-23T09:43:50.004Z,24.18
2018-05-23T09:44:50.231Z,24.10
2018-05-23T09:45:50.477Z,24.14
2018-05-23T09:46:50.697Z,24.10
2018-05-23T09:47:50.934Z,24.11
2018-05-23T09:48:51.169Z,24.24
2018-05-23T09:49:51.401Z,24.13
2018-05-23T09:50:51.638Z,23.91
2018-05-23T09:51:51.876Z,23.86
2018-05-23T09:52:52.125Z,23.76
2018-05-23T09:53:52.343Z,23.84
2018-05-23T09:54:52.580Z,23.87
2018-05-23T09:55:52.816Z,23.84
2018-05-23T09:56:53.050Z,23.95
2018-05-23T09:57:53.288Z,23.93
2018-05-23T09:58:53.537Z,24.05
2018-05-23T09:59:53.761Z,24.11
2018-05-23T10:00:54.001Z,24.14
2018-05-23T10:01:54.235Z,24.14
2018-05-23T10:02:54.470Z,24.28
2018-05-23T10:03:54.702Z,24.21
2018-05-23T10:04:54.942Z,24.13
2018-05-23T10:05:55.175Z,24.11
2018-05-23T10:06:55.411Z,24.17
2018-05-23T10:07:55.647Z,24.33
2018-05-23T10:08:55.887Z,24.32
2018-05-23T10:09:56.119Z,24.16
2018-05-23T10:10:56.363Z,24.30
2018-05-23T10:11:56.599Z,24.38
2018-05-23T10:12:56.834Z,24.51
2018-05-23T10:13:57.067Z,24.70
2018-05-23T10:14:57.293Z,24.68
2018-05-23T10:15:57.527Z,24.76
2018-05-23T10:16:57.762Z,24.76
2018-05-23T10:17:57.996Z,24.77
2018-05-23T10:18:58.234Z,24.85
2018-05-23T10:19:58.477Z,24.91
2018-05-23T10:20:58.695Z,24.93
2018-05-23T10:21:58.936Z,24.85
2018-05-23T10:22:59.176Z,24.78
2018-05-23T10:23:59.405Z,24.91
2018-05-23T10:24:59.640Z,25.11
2018-05-23T10:25:59.880Z,25.10
2018-05-23T10:27:00.111Z,25.18
2018-05-23T10:28:00.368Z,25.29
2018-05-23T10:29:00.591Z,25.21
2018-05-23T10:30:00.827Z,25.03
2018-05-23T10:31:01.060Z,25.04
2018-05-23T10:32:01.292Z,24.81
2018-05-23T10:33:01.525Z,24.84
2018-05-23T10:34:01.767Z,24.68
2018-05-23T10:35:02.006Z,24.55
2018-05-23T10:36:02.239Z,24.51
2018-05-23T10:37:02.482Z,24.38
2018-05-23T10:38:02.721Z,24.38
2018-05-23T10:39:03.018Z,24.47
2018-05-23T10:40:03.177Z,24.30
2018-05-23T10:41:03.434Z,24.29
2018-05-23T10:42:03.670Z,24.35
2018-05-23T10:43:03.905Z,24.32
2018-05-23T10:44:04.135Z,24.38
2018-05-23T10:45:04.375Z,24.40
2018-05-23T10:46:04.615Z,24.39
2018-05-23T10:47:04.854Z,24.38
2018-05-23T10:48:05.090Z,24.17
2018-05-23T10:49:05.326Z,24.16
2018-05-23T10:50:05.560Z,24.17
2018-05-23T10:51:05.798Z,24.32
2018-05-23T10:52:06.102Z,24.40
2018-05-23T10:53:06.270Z,24.47
2018-05-23T10:54:06.509Z,24.33
2018-05-23T10:55:06.754Z,24.36
2018-05-23T10:56:06.979Z,24.36
2018-05-23T10:57:07.288Z,24.43
2018-05-23T10:58:07.457Z,24.42
2018-05-23T10:59:07.704Z,24.65
2018-05-23T11:00:07.932Z,24.65
2018-05-23T11:01:08.164Z,24.76
2018-05-23T11:02:08.396Z,25.03
2018-05-23T11:03:08.640Z,25.07
2018-05-23T11:04:08.871Z,25.32
2018-05-23T11:05:09.115Z,25.53
2018-05-23T11:06:09.343Z,25.69
2018-05-23T11:07:09.563Z,25.75
2018-05-23T11:08:09.802Z,25.73
2018-05-23T11:09:10.035Z,25.85
2018-05-23T11:10:10.272Z,25.69
2018-05-23T11:11:10.515Z,25.81
2018-05-23T11:12:10.754Z,25.68
2018-05-23T11:13:10.987Z,25.73
2018-05-23T11:14:11.224Z,25.63
2018-05-23T11:15:11.519Z,25.63
2018-05-23T11:16:11.699Z,25.83
2018-05-23T11:17:11.936Z,25.83
2018-05-23T11:18:12.168Z,25.96
2018-05-23T11:19:12.407Z,25.83
2018-05-23T11:20:12.641Z,25.93
2018-05-23T11:21:12.882Z,26.10
2018-05-23T11:22:13.123Z,26.10
2018-05-23T11:23:13.360Z,26.13
2018-05-23T11:24:13.594Z,26.06
2018-05-23T11:25:13.835Z,26.23
2018-05-23T11:26:14.073Z,26.23
2018-05-23T11:27:14.309Z,26.23
2018-05-23T11:28:14.546Z,26.06
2018-05-23T11:29:14.789Z,26.29
2018-05-23T11:30:15.024Z,26.18
2018-05-23T11:31:15.266Z,26.13
2018-05-23T11:32:15.500Z,25.96
2018-05-23T11:33:15.736Z,25.96
2018-05-23T11:34:15.975Z,25.95
2018-05-23T11:35:16.211Z,25.84
2018-05-23T11:36:16.449Z,25.98
2018-05-23T11:37:16.687Z,25.90
2018-05-23T11:38:16.925Z,25.91
2018-05-23T11:39:17.161Z,25.88
2018-05-23T11:40:17.394Z,25.83
2018-05-23T11:41:17.652Z,25.83
2018-05-23T11:42:17.864Z,25.81
2018-05-23T11:43:18.104Z,25.90
2018-05-23T11:44:18.342Z,25.99
2018-05-23T11:45:18.581Z,26.00
2018-05-23T11:46:18.821Z,25.84
2018-05-23T11:47:19.056Z,25.84
2018-05-23T11:48:19.292Z,25.80
2018-05-23T11:49:19.530Z,25.83
2018-05-23T11:50:21.294Z,25.98
2018-05-23T11:51:20.028Z,26.18
2018-05-23T11:52:20.268Z,26.22
2018-05-23T11:53:20.512Z,26.06
2018-05-23T11:54:20.751Z,26.26
2018-05-23T11:55:20.987Z,26.34
2018-05-23T11:56:21.233Z,26.51
2018-05-23T11:57:21.473Z,26.47
2018-05-23T11:58:21.711Z,26.51
2018-05-23T11:59:21.946Z,26.40
2018-05-23T12:00:22.185Z,26.21
2018-05-23T12:01:22.420Z,26.10
2018-05-23T12:02:22.661Z,26.13
2018-05-23T12:03:22.897Z,26.10
2018-05-23T12:04:23.148Z,25.91
2018-05-23T12:05:23.392Z,25.93
2018-05-23T12:06:23.609Z,25.91
2018-05-23T12:07:23.848Z,25.96
2018-05-23T12:08:24.080Z,25.93
2018-05-23T12:09:24.314Z,25.80
2018-05-23T12:10:24.620Z,25.93
2018-05-23T12:11:24.791Z,25.84
2018-05-23T12:12:25.038Z,25.96
2018-05-23T12:13:25.283Z,26.05
2018-05-23T12:14:25.509Z,26.09
2018-05-23T12:15:25.748Z,25.96
2018-05-23T12:16:25.989Z,25.99
2018-05-23T12:17:26.229Z,25.95
2018-05-23T12:18:26.470Z,26.13
2018-05-23T12:19:26.705Z,26.34
2018-05-23T12:20:26.944Z,26.40
2018-05-23T12:21:27.179Z,26.34
2018-05-23T12:22:27.410Z,26.33
2018-05-23T12:23:27.648Z,26.40
2018-05-23T12:24:27.888Z,26.48
2018-05-23T12:25:28.125Z,26.52
2018-05-23T12:26:28.368Z,26.60
2018-05-23T12:27:28.599Z,26.44
2018-05-23T12:28:28.838Z,26.36
2018-05-23T12:29:29.074Z,26.21
2018-05-23T12:30:29.314Z,26.40
2018-05-23T12:31:29.551Z,26.37
2018-05-23T12:32:29.790Z,26.25
2018-05-23T12:33:30.054Z,26.10
2018-05-23T12:34:30.298Z,26.02
2018-05-23T12:35:30.541Z,25.99
2018-05-23T12:36:30.767Z,26.05
2018-05-23T12:37:31.007Z,26.09
2018-05-23T12:38:31.240Z,25.96
2018-05-23T12:39:31.476Z,26.07
2018-05-23T12:40:31.709Z,26.09
2018-05-23T12:41:31.955Z,26.31
2018-05-23T12:42:32.183Z,26.07
2018-05-23T12:43:32.423Z,25.95
2018-05-23T12:44:32.656Z,26.21
2018-05-23T12:45:32.897Z,26.31
2018-05-23T12:46:33.135Z,26.51
2018-05-23T12:47:33.378Z,26.51
2018-05-23T12:48:33.602Z,26.55
2018-05-23T12:49:33.856Z,26.59
2018-05-23T12:50:34.097Z,26.52
2018-05-23T12:51:34.323Z,26.52
2018-05-23T12:52:34.561Z,26.45
2018-05-23T12:53:34.800Z,26.43
2018-05-23T12:54:35.041Z,26.44
2018-05-23T12:55:35.274Z,26.56